Knickerbocker — WDC7987 — position and weather

sailwx.info

Track history (hours):
 
Tides and Currents Weather Stations Pressure Air Temp Water Temp Dewpoint Dewpoint Depression Visibility Wind Speed Wind Dir Waves Ship Positions

Knickerbocker

Owner: Christopher Corp., Newport, RI. More information available from US FCC via Universal Licensing System and Coast Guard Vessel Documentation Center.

Last reported at 2016-Jul-25 11:23 UTC. Time now 2016-Jul-27 03:48 UTC.
Position N 41°35' W 070°44'.

Length 36 m; draft 3.6 m.

Type: Sailing vessel. MMSI: 367079960.

Date/timePositionNaut miles runAvg speedWind from/ knotsBaromVisibWave heightAir tempDewpointWater temp
2016-Jul-25 11:23N 41°35' W 070°44'18 9.4
2016-Jul-25 09:25N 41°48' W 070°28'8 8.9
2016-Jul-25 08:33N 41°56' W 070°25'10 9.7
2016-Jul-25 07:33N 42°05' W 070°22'10 9.8
2016-Jul-25 06:33N 42°15' W 070°21'9 9.4
2016-Jul-25 05:33N 42°24' W 070°19'10 9.7
2016-Jul-25 04:34N 42°34' W 070°18'9 9.3
2016-Jul-25 03:33N 42°43' W 070°18'9 8.8
2016-Jul-25 02:34N 42°52' W 070°17'9 9.4
2016-Jul-25 01:33N 43°01' W 070°15'  
2016-Jul-18 01:10N 42°36' W 069°46'6 9.2
2016-Jul-18 00:33N 42°32' W 069°51'9 9.2
2016-Jul-17 23:33N 42°24' W 069°58'9 8.9
2016-Jul-17 22:33N 42°17' W 070°05'7 7.4
2016-Jul-17 21:33N 42°12' W 070°12'9 8.9
2016-Jul-17 20:33N 42°04' W 070°18'47 4.3
2016-Jul-17 09:33N 41°26' W 070°54'0 0.0
2016-Jul-17 08:30N 41°26' W 070°54'  
Track history (hours):
 
Tides and Currents Weather Stations Pressure Air Temp Water Temp Dewpoint Dewpoint Depression Visibility Wind Speed Wind Dir Waves Ship Positions

Knickerbocker

Owner: Christopher Corp., Newport, RI. More information available from US FCC via Universal Licensing System and Coast Guard Vessel Documentation Center.

Last reported at 2016-Jul-25 11:23 UTC. Time now 2016-Jul-27 03:48 UTC.
Position N 41°35' W 070°44'.

Length 36 m; draft 3.6 m.

Type: Sailing vessel. MMSI: 367079960.

Date/timePositionNaut miles runAvg speedWind from/ knotsBaromVisibWave heightAir tempDewpointWater temp
2016-Jul-25 11:23N 41°35' W 070°44'18 9.4
2016-Jul-25 09:25N 41°48' W 070°28'8 8.9
2016-Jul-25 08:33N 41°56' W 070°25'10 9.7
2016-Jul-25 07:33N 42°05' W 070°22'10 9.8
2016-Jul-25 06:33N 42°15' W 070°21'9 9.4
2016-Jul-25 05:33N 42°24' W 070°19'10 9.7
2016-Jul-25 04:34N 42°34' W 070°18'9 9.3
2016-Jul-25 03:33N 42°43' W 070°18'9 8.8
2016-Jul-25 02:34N 42°52' W 070°17'9 9.4
2016-Jul-25 01:33N 43°01' W 070°15'  
2016-Jul-18 01:10N 42°36' W 069°46'6 9.2
2016-Jul-18 00:33N 42°32' W 069°51'9 9.2
2016-Jul-17 23:33N 42°24' W 069°58'9 8.9
2016-Jul-17 22:33N 42°17' W 070°05'7 7.4
2016-Jul-17 21:33N 42°12' W 070°12'9 8.9
2016-Jul-17 20:33N 42°04' W 070°18'47 4.3
2016-Jul-17 09:33N 41°26' W 070°54'0 0.0
2016-Jul-17 08:30N 41°26' W 070°54'  

Dump ship's entire track history